Skip to main content

NOAA/GLERL Met Station at Chicago, IL

Previous 5 days (top of hour only)
See also Previous 3 Hours (2 minute increments)
Jump down to Data
Switch to [English][Metric]
Zoom: Click and drag, Pan: shift-click and drag, Unzoom: double-click, Unzoom All




Note: Speed = mean wind during 2-minute period at top of hour,
Gust = max wind during 2-minute period at top of hour,
Peak = max wind during entire hour.
• See also 5-day windrose plot


NOAA/GLERL Met Station at Chicago, IL

Previous 5 days (top of hour only)
See also Previous 3 Hours (2 minute increments)
Jump up to Graphs
Switch to [English][Metric]
                  Wind  Wind  Wind   Air   Dew   Rel
                   Spd   Gst   Dir  Temp    Pt   Hum
YYYY-MM-DD   CDT   m/s   m/s   deg     C     C     %
2020-09-23 00:00 -99.0 -99.0   -99   0.0   0.0   0.0
2020-09-22 19:00   5.3   5.8   209  24.5  14.4  52.7
2020-09-22 18:00   5.5   6.0   211  24.9  14.0  50.1
2020-09-22 17:00   4.4   4.8   204  25.1  13.4  47.5
2020-09-22 16:00   2.1   3.2   159  24.2  15.1  56.4
2020-09-22 15:00   1.3   2.3   161  24.2  15.2  56.7
2020-09-22 14:00   2.5   2.9   202  23.5  14.3  55.8
2020-09-22 13:00   2.7   3.4   176  22.2  15.6  65.9
2020-09-22 12:00   2.8   3.0   191  21.0  13.7  62.5
2020-09-22 11:00   2.4   2.6   245  20.0  12.2  60.5
2020-09-22 10:00   3.0   3.3   263  19.0  12.5  65.7
2020-09-22 09:00   4.8   5.3   255  17.8  11.9  67.8
2020-09-22 08:00   5.2   5.7   211  16.4  12.2  75.7
2020-09-22 07:00   6.3   6.7   204  16.8  11.4  70.1
2020-09-22 06:00   5.6   7.0   198  16.9  11.0  67.9
2020-09-22 05:00   5.9   6.7   190  17.0  10.8  66.5
2020-09-22 04:00   5.6   6.1   181  17.3  10.7  64.8
2020-09-22 03:00   5.5   5.9   178  17.8  11.0  64.2
2020-09-22 02:00   4.7   5.0   184  18.0  10.7  61.9
2020-09-22 01:00   6.0   6.2   189  18.5  10.4  58.7
2020-09-22 00:00   7.4   8.0   183  19.3  11.4  59.7
2020-09-21 23:00   6.3   7.1   182  19.9  11.3  57.2
2020-09-21 22:00   3.6   4.0   167  19.3  17.2  87.5
2020-09-21 21:00   1.8   2.5   152  19.2  17.6  90.1
2020-09-21 20:00   3.7   3.9   103  19.1  16.5  84.8
2020-09-21 19:00   4.0   4.3   102  19.2  16.4  83.6
2020-09-21 18:00   5.3   5.6    94  19.2  15.2  77.2
2020-09-21 17:00   5.6   6.0    96  19.4  15.0  75.6
2020-09-21 16:00   5.3   5.6   106  20.1  13.3  64.4
2020-09-21 15:00   5.7   6.2   108  19.6  12.3  62.2
2020-09-21 14:00   7.0   7.5   120  19.4  11.5  59.9
2020-09-21 13:00   6.2   7.0   139  19.2  11.4  60.3
2020-09-21 12:00   5.4   6.5   168  18.7  10.1  56.8
2020-09-21 11:00   5.4   5.8   177  17.6   9.6  58.9
2020-09-21 10:00   6.0   6.6   187  16.3   9.3  62.8
2020-09-21 09:00   6.5   7.3   180  14.9   7.9  62.8
2020-09-21 08:00   5.8   6.7   183  14.6   8.7  67.2
2020-09-21 07:00   6.7   7.2   178  14.8   8.5  65.7
2020-09-21 06:00  10.1  10.7   177  14.7   7.0  59.7
2020-09-21 05:00   9.1  10.4   172  15.8   9.4  65.4
2020-09-21 04:00   9.3  10.9   168  16.2   9.0  62.0
2020-09-21 03:00   8.4  10.2   162  16.3   9.3  63.0
2020-09-21 02:00   7.3  11.4   157  16.9   9.6  61.7
2020-09-21 01:00  10.3  12.8   147  17.7   9.0  56.2
2020-09-21 00:00   9.3  11.2   146  18.7   8.7  51.8
2020-09-20 23:00   9.8  11.5   139  19.3  10.0  54.4
2020-09-20 22:00   9.9  10.8   136  19.8   9.9  52.2
2020-09-20 21:00   8.4   9.2   138  20.1  10.5  53.5
2020-09-20 20:00   5.3   5.7   120  19.9  14.8  72.2
2020-09-20 19:00   6.5   6.8    91  19.6  14.0  69.7
2020-09-20 18:00   5.6   6.1    85  19.5  11.4  59.0
2020-09-20 17:00   7.0   7.6    78  19.2  10.1  55.3
2020-09-20 16:00   5.3   5.5    78  19.1   9.1  52.0
2020-09-20 15:00   5.6   6.1    93  18.8   7.8  48.4
2020-09-20 14:00   5.2   5.5   107  18.6   8.6  51.6
2020-09-20 13:00   6.8   7.7   143  18.1   7.5  49.4
2020-09-20 12:00   7.2   7.9   136  17.5   7.7  52.1
2020-09-20 11:00   5.2   7.4   151  16.8   8.2  56.3
2020-09-20 10:00   4.5   6.1   167  15.9   8.3  60.4
2020-09-20 09:00   5.6   6.4   185  14.9   9.1  67.8
2020-09-20 08:00   4.8   6.4   170  15.4   9.4  67.0
2020-09-20 07:00   5.5   6.1   184  14.4  10.0  74.4
2020-09-20 06:00   7.4   8.1   185  15.1   6.1  54.7
2020-09-20 05:00   6.4   7.7   168  16.1   7.2  55.1
2020-09-20 04:00   5.7   7.3   153  16.5   8.4  58.4
2020-09-20 03:00   6.7   7.0   132  16.5   9.6  63.3
2020-09-20 02:00   5.5   6.3   121  16.9   9.9  62.8
2020-09-20 01:00   6.1   6.8   127  17.0   8.8  58.2
2020-09-20 00:00   5.4   6.3   118  17.0   8.8  58.2
2020-09-19 23:00   4.2   4.7   128  17.0   6.8  50.6
2020-09-19 22:00   3.4   3.7   108  16.8   6.7  51.1
2020-09-19 21:00   4.2   4.7   121  16.6   7.3  53.9
2020-09-19 20:00   4.6   4.9    98  16.4   7.2  54.3
2020-09-19 19:00   3.4   4.2   112  16.0   5.8  50.5
2020-09-19 18:00   5.1   5.7    98  15.8   6.4  53.4
2020-09-19 17:00   5.2   6.7    90  15.2   5.5  52.1
2020-09-19 16:00   6.3   6.7    90  14.9   5.3  52.2
2020-09-19 15:00   7.3   8.3    89  14.6   5.3  53.2
2020-09-19 14:00   7.0   8.0   101  14.4   4.9  52.4
2020-09-19 13:00   5.8   6.3   113  14.4   4.3  50.5
2020-09-19 12:00   2.7   3.9   169  14.4   3.0  45.9
2020-09-19 11:00   2.6   3.5   182  14.0   5.5  56.2
2020-09-19 10:00   5.3   6.0   196  12.8   4.8  57.8
2020-09-19 09:00   6.2   7.4   184  12.3   6.5  67.4
2020-09-19 08:00   7.4   8.7   193  12.4   7.2  70.1
2020-09-19 07:00  10.0  10.8   178  12.4   6.9  68.7
2020-09-19 06:00   9.7  10.4   174  12.9   6.6  65.5
2020-09-19 05:00   7.5   9.1   166  13.6   6.1  60.2
2020-09-19 04:00   5.5   6.2   117  14.2   5.4  55.0
2020-09-19 03:00   7.1   8.0   127  14.3   5.4  54.8
2020-09-19 02:00   4.4   5.4   108  14.6   5.7  54.9
2020-09-19 01:00   6.1   7.0    89  14.7   6.2  56.5
2020-09-19 00:00   2.7   3.8    69  14.4   5.4  54.4
2020-09-18 23:00   4.5   5.4    50  14.3   5.8  56.2
2020-09-18 22:00   4.9   5.5    48  14.1   5.1  54.3
2020-09-18 21:00   4.3   5.5    44  13.9   4.7  53.7
2020-09-18 20:00   5.9   7.3    24  13.7   5.6  57.8
2020-09-18 19:00   6.7   7.6     6  13.2   3.9  53.0